createdAt,value
2018-04-11T00:01:27.086Z,6.87
2018-04-11T00:03:54.686Z,6.84
2018-04-11T00:06:22.309Z,6.81
2018-04-11T00:08:49.928Z,6.79
2018-04-11T00:11:17.648Z,6.78
2018-04-11T00:13:45.259Z,6.77
2018-04-11T00:16:12.966Z,6.76
2018-04-11T00:18:40.631Z,6.75
2018-04-11T00:21:08.235Z,6.76
2018-04-11T00:23:35.871Z,6.75
2018-04-11T00:26:03.519Z,6.74
2018-04-11T00:28:31.191Z,6.74
2018-04-11T00:30:58.842Z,6.71
2018-04-11T00:33:26.502Z,6.69
2018-04-11T00:35:54.172Z,6.67
2018-04-11T00:38:21.835Z,6.67
2018-04-11T00:40:49.496Z,6.65
2018-04-11T00:43:17.160Z,6.64
2018-04-11T00:45:44.914Z,6.62
2018-04-11T00:48:12.546Z,6.60
2018-04-11T00:50:40.242Z,6.58
2018-04-11T00:53:19.783Z,6.58
2018-04-11T00:55:47.386Z,6.57
2018-04-11T00:58:15.107Z,6.55
2018-04-11T01:00:42.781Z,6.54
2018-04-11T01:03:10.437Z,6.53
2018-04-11T01:05:38.072Z,6.52
2018-04-11T01:08:05.755Z,6.51
2018-04-11T01:10:33.379Z,6.49
2018-04-11T01:13:00.986Z,6.48
2018-04-11T01:15:29.055Z,6.47
2018-04-11T01:17:56.719Z,6.48
2018-04-11T01:20:24.383Z,6.47
2018-04-11T01:22:52.043Z,6.48
2018-04-11T01:25:19.670Z,6.49
2018-04-11T01:27:47.366Z,6.50
2018-04-11T01:30:15.132Z,6.50
2018-04-11T01:32:42.813Z,6.50
2018-04-11T01:35:10.558Z,6.51
2018-04-11T01:37:38.231Z,6.51
2018-04-11T01:40:05.843Z,6.53
2018-04-11T01:42:33.471Z,6.55
2018-04-11T01:45:01.110Z,6.57
2018-04-11T01:47:29.495Z,6.58
2018-04-11T01:49:57.107Z,6.58
2018-04-11T01:52:24.743Z,6.60
2018-04-11T01:54:52.387Z,6.61
2018-04-11T01:57:20.048Z,6.62
2018-04-11T01:59:47.658Z,6.63
2018-04-11T02:02:15.291Z,6.63
2018-04-11T02:04:42.900Z,6.63
2018-04-11T02:07:10.595Z,6.63
2018-04-11T02:09:38.255Z,6.62
2018-04-11T02:12:05.851Z,6.62
2018-04-11T02:14:33.486Z,6.59
2018-04-11T02:17:01.103Z,6.60
2018-04-11T02:19:28.750Z,6.60
2018-04-11T02:21:56.364Z,6.60
2018-04-11T02:24:24.035Z,6.59
2018-04-11T02:26:51.647Z,6.59
2018-04-11T02:29:19.284Z,6.61
2018-04-11T02:31:46.911Z,6.61
2018-04-11T02:34:14.548Z,6.62
2018-04-11T02:36:42.205Z,6.62
2018-04-11T02:39:09.852Z,6.59
2018-04-11T02:41:37.572Z,6.64
2018-04-11T02:44:05.223Z,6.64
2018-04-11T02:46:32.839Z,6.66
2018-04-11T02:49:00.556Z,6.66
2018-04-11T02:51:28.220Z,6.67
2018-04-11T02:53:55.883Z,6.67
2018-04-11T02:56:23.515Z,6.65
2018-04-11T02:58:51.127Z,6.64
2018-04-11T03:01:18.866Z,6.64
2018-04-11T03:03:46.508Z,6.62
2018-04-11T03:06:14.195Z,6.59
2018-04-11T03:08:41.811Z,6.59
2018-04-11T03:11:09.442Z,6.59
2018-04-11T03:13:37.090Z,6.59
2018-04-11T03:16:04.838Z,6.58
2018-04-11T03:18:32.443Z,6.57
2018-04-11T03:21:00.071Z,6.59
2018-04-11T03:23:27.826Z,6.58
2018-04-11T03:25:55.438Z,6.59
2018-04-11T03:28:23.064Z,6.57
2018-04-11T03:30:50.676Z,6.57
2018-04-11T03:33:18.315Z,6.56
2018-04-11T03:35:46.044Z,6.57
2018-04-11T03:38:13.695Z,6.58
2018-04-11T03:40:41.319Z,6.58
2018-04-11T03:43:09.036Z,6.58
2018-04-11T03:45:36.675Z,6.57
2018-04-11T03:48:04.295Z,6.56
2018-04-11T03:50:31.932Z,6.56
2018-04-11T03:52:59.677Z,6.56
2018-04-11T03:55:27.315Z,6.56
2018-04-11T03:57:55.002Z,6.57
2018-04-11T04:00:22.676Z,6.58
2018-04-11T04:02:50.286Z,6.57
2018-04-11T04:05:17.923Z,6.58
2018-04-11T04:07:45.563Z,6.61
2018-04-11T04:10:13.258Z,6.63
2018-04-11T04:12:40.888Z,6.63
2018-04-11T04:15:20.327Z,6.64
2018-04-11T04:17:59.857Z,6.62
2018-04-11T04:20:36.314Z,6.62
2018-04-11T04:23:04.002Z,6.60
2018-04-11T04:25:31.641Z,6.61
2018-04-11T04:27:59.259Z,6.61
2018-04-11T04:30:26.919Z,6.63
2018-04-11T04:32:54.629Z,6.63
2018-04-11T04:35:22.239Z,6.64
2018-04-11T04:37:49.975Z,6.64
2018-04-11T04:40:17.628Z,6.65
2018-04-11T04:42:45.394Z,6.66
2018-04-11T04:45:13.013Z,6.67
2018-04-11T04:47:40.730Z,6.68
2018-04-11T04:50:08.391Z,6.69
2018-04-11T04:52:36.042Z,6.70
2018-04-11T04:55:03.776Z,6.71
2018-04-11T04:57:31.391Z,6.71
2018-04-11T04:59:59.018Z,6.71
2018-04-11T05:02:26.635Z,6.69
2018-04-11T05:04:54.999Z,6.69
2018-04-11T05:07:22.682Z,6.69
2018-04-11T05:09:50.314Z,6.70
2018-04-11T05:12:17.926Z,6.73
2018-04-11T05:14:45.568Z,6.75
2018-04-11T05:17:13.290Z,6.76
2018-04-11T05:19:41.154Z,6.77
2018-04-11T05:22:08.792Z,6.79
2018-04-11T05:24:36.408Z,6.81
2018-04-11T05:27:04.056Z,6.84
2018-04-11T05:29:31.742Z,6.86
2018-04-11T05:31:59.375Z,6.88
2018-04-11T05:34:27.044Z,6.90
2018-04-11T05:36:54.703Z,6.94
2018-04-11T05:39:22.367Z,6.98
2018-04-11T05:41:50.005Z,7.01
2018-04-11T05:44:17.680Z,7.07
2018-04-11T05:46:45.452Z,7.10
2018-04-11T05:49:13.058Z,7.12
2018-04-11T05:51:41.686Z,7.13
2018-04-11T05:54:09.363Z,7.15
2018-04-11T05:56:37.016Z,7.17
2018-04-11T05:59:04.629Z,7.18
2018-04-11T06:01:32.258Z,7.18
2018-04-11T06:03:59.897Z,7.21
2018-04-11T06:06:27.670Z,7.23
2018-04-11T06:08:55.343Z,7.27
2018-04-11T06:11:22.964Z,7.30
2018-04-11T06:13:50.603Z,7.33
2018-04-11T06:16:18.224Z,7.36
2018-04-11T06:18:45.859Z,7.35
2018-04-11T06:21:13.559Z,7.36
2018-04-11T06:23:41.309Z,7.36
2018-04-11T06:26:08.924Z,7.36
2018-04-11T06:28:36.645Z,7.35
2018-04-11T06:31:04.256Z,7.35
2018-04-11T06:33:31.887Z,7.35
2018-04-11T06:35:59.508Z,7.36
2018-04-11T06:38:27.154Z,7.37
2018-04-11T06:40:54.763Z,7.38
2018-04-11T06:43:22.410Z,7.40
2018-04-11T06:45:50.172Z,7.42
2018-04-11T06:48:17.792Z,7.45
2018-04-11T06:50:45.427Z,7.48
2018-04-11T06:53:13.160Z,7.49
2018-04-11T06:55:40.831Z,7.51
2018-04-11T06:58:08.486Z,7.54
2018-04-11T07:00:36.124Z,7.57
2018-04-11T07:03:03.812Z,7.64
2018-04-11T07:05:31.576Z,7.71
2018-04-11T07:07:59.240Z,7.77
2018-04-11T07:10:27.005Z,7.81
2018-04-11T07:12:54.619Z,7.89
2018-04-11T07:15:22.331Z,7.95
2018-04-11T07:17:50.096Z,8.01
2018-04-11T07:20:17.758Z,8.09
2018-04-11T07:22:45.527Z,8.15
2018-04-11T07:25:13.139Z,8.21
2018-04-11T07:27:40.849Z,8.28
2018-04-11T07:30:08.614Z,8.30
2018-04-11T07:32:36.247Z,8.32
2018-04-11T07:35:04.042Z,8.37
2018-04-11T07:37:31.705Z,8.41
2018-04-11T07:39:59.369Z,8.48
2018-04-11T07:42:27.030Z,8.52
2018-04-11T07:44:54.646Z,8.55
2018-04-11T07:47:22.299Z,8.60
2018-04-11T07:49:50.020Z,8.65
2018-04-11T07:52:17.632Z,8.71
2018-04-11T07:54:45.345Z,8.76
2018-04-11T07:57:12.958Z,8.80
2018-04-11T07:59:40.686Z,8.83
2018-04-11T08:02:08.304Z,8.88
2018-04-11T08:04:35.943Z,8.94
2018-04-11T08:07:03.659Z,8.98
2018-04-11T08:09:31.323Z,9.03
2018-04-11T08:11:59.087Z,9.09
2018-04-11T08:14:26.727Z,9.14
2018-04-11T08:16:54.419Z,9.16
2018-04-11T08:19:22.067Z,9.18
2018-04-11T08:21:49.674Z,9.19
2018-04-11T08:24:17.287Z,9.21
2018-04-11T08:26:44.928Z,9.26
2018-04-11T08:29:12.552Z,9.29
2018-04-11T08:31:40.187Z,9.33
2018-04-11T08:34:07.838Z,9.39
2018-04-11T08:36:35.483Z,9.48
2018-04-11T08:39:03.109Z,9.51
2018-04-11T08:41:30.939Z,9.58
2018-04-11T08:43:58.704Z,9.67
2018-04-11T08:46:26.471Z,9.74
2018-04-11T08:48:55.770Z,9.81
2018-04-11T08:51:23.433Z,9.85
2018-04-11T08:53:51.103Z,9.90
2018-04-11T08:56:18.762Z,9.95
2018-04-11T08:58:46.383Z,10.01
2018-04-11T09:01:14.068Z,10.10
2018-04-11T09:03:41.850Z,10.16
2018-04-11T09:06:09.468Z,10.20
2018-04-11T09:08:37.112Z,10.23
2018-04-11T09:11:04.839Z,10.27
2018-04-11T09:13:32.479Z,10.29
2018-04-11T09:16:00.090Z,10.32
2018-04-11T09:18:27.811Z,10.37
2018-04-11T09:20:55.436Z,10.39
2018-04-11T09:23:23.161Z,10.35
2018-04-11T09:25:50.818Z,10.34
2018-04-11T09:28:18.490Z,10.32
2018-04-11T09:30:46.141Z,10.33
2018-04-11T09:33:13.845Z,10.31
2018-04-11T09:35:41.475Z,10.29
2018-04-11T09:38:09.233Z,10.31
2018-04-11T09:40:36.896Z,10.35
2018-04-11T09:43:04.519Z,10.37
2018-04-11T09:45:32.160Z,10.41
2018-04-11T09:47:59.777Z,10.49
2018-04-11T09:50:27.459Z,10.55
2018-04-11T09:52:55.087Z,10.56
2018-04-11T09:55:22.735Z,10.53
2018-04-11T09:57:50.351Z,10.50
2018-04-11T10:00:17.995Z,10.49
2018-04-11T10:02:45.606Z,10.47
2018-04-11T10:05:13.264Z,10.41
2018-04-11T10:07:40.892Z,10.37
2018-04-11T10:10:08.551Z,10.33
2018-04-11T10:12:36.205Z,10.31
2018-04-11T10:15:03.830Z,10.29
2018-04-11T10:17:31.469Z,10.29
2018-04-11T10:19:59.098Z,10.27
2018-04-11T10:22:26.753Z,10.26
2018-04-11T10:24:54.419Z,10.23
2018-04-11T10:27:22.086Z,10.21
2018-04-11T10:29:49.752Z,10.19
2018-04-11T10:32:17.414Z,10.20
2018-04-11T10:34:45.036Z,10.22
2018-04-11T10:37:12.678Z,10.21
2018-04-11T10:39:40.308Z,10.23
2018-04-11T10:42:08.074Z,10.25
2018-04-11T10:44:35.727Z,10.28
2018-04-11T10:47:03.352Z,10.30
2018-04-11T10:49:31.053Z,10.34
2018-04-11T10:51:58.671Z,10.38
2018-04-11T10:54:26.311Z,10.43
2018-04-11T10:56:53.931Z,10.47
2018-04-11T10:59:22.196Z,10.53
2018-04-11T11:01:49.810Z,10.58
2018-04-11T11:04:17.544Z,10.62
2018-04-11T11:06:45.207Z,10.59
2018-04-11T11:09:12.860Z,10.59
2018-04-11T11:11:40.537Z,10.60
2018-04-11T11:14:08.179Z,10.65
2018-04-11T11:16:36.679Z,10.68
2018-04-11T11:19:04.324Z,10.76
2018-04-11T11:21:31.999Z,10.77
2018-04-11T11:23:59.658Z,10.75
2018-04-11T11:26:27.295Z,10.72
2018-04-11T11:28:54.915Z,10.72
2018-04-11T11:31:22.550Z,10.72
2018-04-11T11:33:50.215Z,10.75
2018-04-11T11:36:17.875Z,10.77
2018-04-11T11:38:45.566Z,10.76
2018-04-11T11:41:13.207Z,10.76
2018-04-11T11:43:40.867Z,10.76
2018-04-11T11:46:08.513Z,10.78
2018-04-11T11:48:36.134Z,10.86
2018-04-11T11:51:03.775Z,10.92
2018-04-11T11:53:31.391Z,10.99
2018-04-11T11:55:59.037Z,11.05
2018-04-11T11:58:26.650Z,11.11
2018-04-11T12:00:54.394Z,11.21
2018-04-11T12:03:22.075Z,11.26
2018-04-11T12:05:49.710Z,11.27
2018-04-11T12:08:17.381Z,11.26
2018-04-11T12:10:45.055Z,11.24
2018-04-11T12:13:12.723Z,11.21
2018-04-11T12:15:40.369Z,11.24
2018-04-11T12:18:08.006Z,11.28
2018-04-11T12:20:35.623Z,11.31
2018-04-11T12:23:03.374Z,11.35
2018-04-11T12:25:31.021Z,11.41
2018-04-11T12:27:58.696Z,11.44
2018-04-11T12:30:26.354Z,11.48
2018-04-11T12:32:54.027Z,11.49
2018-04-11T12:35:21.682Z,11.48
2018-04-11T12:37:49.299Z,11.47
2018-04-11T12:40:16.935Z,11.47
2018-04-11T12:42:44.552Z,11.45
2018-04-11T12:45:12.227Z,11.42
2018-04-11T12:47:39.850Z,11.40
2018-04-11T12:50:07.546Z,11.35
2018-04-11T12:52:35.171Z,11.38
2018-04-11T12:55:02.819Z,11.40
2018-04-11T12:57:30.438Z,11.40
2018-04-11T12:59:58.100Z,11.37
2018-04-11T13:02:25.779Z,11.36
2018-04-11T13:04:53.441Z,11.37
2018-04-11T13:07:21.096Z,11.38
2018-04-11T13:09:48.720Z,11.35
2018-04-11T13:12:16.363Z,11.28
2018-04-11T13:14:44.012Z,11.17
2018-04-11T13:17:11.747Z,11.06
2018-04-11T13:19:39.363Z,10.96
2018-04-11T13:22:07.076Z,10.97
2018-04-11T13:24:34.732Z,10.93
2018-04-11T13:27:02.387Z,10.88
2018-04-11T13:29:30.011Z,10.84
2018-04-11T13:31:57.667Z,10.79
2018-04-11T13:34:25.288Z,10.75
2018-04-11T13:36:52.931Z,10.71
2018-04-11T13:39:20.550Z,10.67
2018-04-11T13:41:48.286Z,10.62
2018-04-11T13:44:15.924Z,10.59
2018-04-11T13:46:43.530Z,10.57
2018-04-11T13:49:11.172Z,10.58
2018-04-11T13:51:38.792Z,10.61
2018-04-11T13:54:06.435Z,10.63
2018-04-11T13:56:34.047Z,10.64
2018-04-11T13:59:01.692Z,10.60
2018-04-11T14:01:29.376Z,10.52
2018-04-11T14:03:57.031Z,10.44
2018-04-11T14:06:24.652Z,10.36
2018-04-11T14:08:52.298Z,10.29
2018-04-11T14:11:20.019Z,10.21
2018-04-11T14:13:47.664Z,10.17
2018-04-11T14:16:15.291Z,10.16
2018-04-11T14:18:43.015Z,10.16
2018-04-11T14:21:10.656Z,10.16
2018-04-11T14:23:38.276Z,10.14
2018-04-11T14:26:05.926Z,10.12
2018-04-11T14:28:33.534Z,10.09
2018-04-11T14:31:01.176Z,10.08
2018-04-11T14:33:28.831Z,10.08
2018-04-11T14:35:56.485Z,10.09
2018-04-11T14:38:24.112Z,10.12
2018-04-11T14:40:51.751Z,10.12
2018-04-11T14:43:19.384Z,10.11
2018-04-11T14:45:47.095Z,10.07
2018-04-11T14:48:14.735Z,10.02
2018-04-11T14:50:42.349Z,9.99
2018-04-11T14:53:09.982Z,9.99
2018-04-11T14:55:37.603Z,10.00
2018-04-11T14:58:05.237Z,9.99
2018-04-11T15:00:32.865Z,9.99
2018-04-11T15:03:00.495Z,9.99
2018-04-11T15:05:28.191Z,9.96
2018-04-11T15:07:55.847Z,9.95
2018-04-11T15:10:23.524Z,9.96
2018-04-11T15:12:51.140Z,9.94
2018-04-11T15:15:18.846Z,9.95
2018-04-11T15:17:46.470Z,9.94
2018-04-11T15:20:14.107Z,9.88
2018-04-11T15:22:41.723Z,9.82
2018-04-11T15:25:09.359Z,9.76
2018-04-11T15:27:36.991Z,9.71
2018-04-11T15:30:04.631Z,9.67
2018-04-11T15:32:32.274Z,9.65
2018-04-11T15:34:59.930Z,9.59
2018-04-11T15:37:27.604Z,9.55
2018-04-11T15:39:55.215Z,9.52
2018-04-11T15:42:22.848Z,9.49
2018-04-11T15:44:50.454Z,9.42
2018-04-11T15:47:18.091Z,9.37
2018-04-11T15:49:45.742Z,9.34
2018-04-11T15:52:13.375Z,9.32
2018-04-11T15:54:41.035Z,9.32
2018-04-11T15:57:08.708Z,9.30
2018-04-11T15:59:36.323Z,9.29
2018-04-11T16:02:03.967Z,9.26
2018-04-11T16:04:31.596Z,9.24
2018-04-11T16:06:59.244Z,9.20
2018-04-11T16:09:26.856Z,9.13
2018-04-11T16:11:54.494Z,9.07
2018-04-11T16:14:22.099Z,9.02
2018-04-11T16:16:49.747Z,8.97
2018-04-11T16:19:17.360Z,8.93
2018-04-11T16:21:44.966Z,8.91
2018-04-11T16:24:12.598Z,8.91
2018-04-11T16:26:40.206Z,8.91
2018-04-11T16:29:07.840Z,8.87
2018-04-11T16:31:35.450Z,8.82
2018-04-11T16:34:03.087Z,8.77
2018-04-11T16:36:30.702Z,8.74
2018-04-11T16:38:58.346Z,8.70
2018-04-11T16:41:26.011Z,8.67
2018-04-11T16:43:53.643Z,8.63
2018-04-11T16:46:21.338Z,8.60
2018-04-11T16:48:49.002Z,8.58
2018-04-11T16:51:16.605Z,8.57
2018-04-11T16:53:44.240Z,8.56
2018-04-11T16:56:11.851Z,8.55
2018-04-11T16:58:39.485Z,8.53
2018-04-11T17:01:07.119Z,8.53
2018-04-11T17:03:34.776Z,8.52
2018-04-11T17:06:02.440Z,8.50
2018-04-11T17:08:30.208Z,8.46
2018-04-11T17:10:57.810Z,8.41
2018-04-11T17:13:25.416Z,8.37
2018-04-11T17:15:53.091Z,8.30
2018-04-11T17:18:20.804Z,8.27
2018-04-11T17:21:00.299Z,8.25
2018-04-11T17:23:39.695Z,8.19
2018-04-11T17:26:19.063Z,8.16
2018-04-11T17:28:58.553Z,8.11
2018-04-11T17:31:26.902Z,8.07
2018-04-11T17:33:54.559Z,8.04
2018-04-11T17:36:22.217Z,8.03
2018-04-11T17:38:49.879Z,8.01
2018-04-11T17:41:17.535Z,8.00
2018-04-11T17:43:45.147Z,7.99
2018-04-11T17:46:12.791Z,7.95
2018-04-11T17:48:40.423Z,7.89
2018-04-11T17:51:08.059Z,7.85
2018-04-11T17:53:35.671Z,7.82
2018-04-11T17:56:03.305Z,7.78
2018-04-11T17:58:30.988Z,7.73
2018-04-11T18:00:59.349Z,7.71
2018-04-11T18:03:26.963Z,7.66
2018-04-11T18:05:54.674Z,7.62
2018-04-11T18:08:22.331Z,7.57
2018-04-11T18:10:49.999Z,7.54
2018-04-11T18:13:17.631Z,7.50
2018-04-11T18:15:45.239Z,7.47
2018-04-11T18:18:12.897Z,7.45
2018-04-11T18:20:40.513Z,7.42
2018-04-11T18:23:08.148Z,7.39
2018-04-11T18:25:35.752Z,7.36
2018-04-11T18:28:03.399Z,7.32
2018-04-11T18:30:31.008Z,7.29
2018-04-11T18:32:58.668Z,7.25
2018-04-11T18:35:26.270Z,7.21
2018-04-11T18:37:53.875Z,7.18
2018-04-11T18:40:21.551Z,7.16
2018-04-11T18:42:49.163Z,7.12
2018-04-11T18:45:16.871Z,7.09
2018-04-11T18:47:44.539Z,7.05
2018-04-11T18:50:12.204Z,7.00
2018-04-11T18:52:39.816Z,6.97
2018-04-11T18:55:07.532Z,6.95
2018-04-11T18:57:35.151Z,6.92
2018-04-11T19:00:02.787Z,6.89
2018-04-11T19:02:30.382Z,6.88
2018-04-11T19:04:58.079Z,6.85
2018-04-11T19:07:25.720Z,6.84
2018-04-11T19:09:53.327Z,6.83
2018-04-11T19:12:20.967Z,6.80
2018-04-11T19:14:48.575Z,6.78
2018-04-11T19:17:16.211Z,6.75
2018-04-11T19:19:43.852Z,6.72
2018-04-11T19:22:11.516Z,6.68
2018-04-11T19:24:39.180Z,6.66
2018-04-11T19:27:06.819Z,6.63
2018-04-11T19:29:34.426Z,6.60
2018-04-11T19:32:02.162Z,6.57
2018-04-11T19:34:29.828Z,6.55
2018-04-11T19:36:57.491Z,6.53
2018-04-11T19:39:25.123Z,6.50
2018-04-11T19:41:52.741Z,6.48
2018-04-11T19:44:20.390Z,6.49
2018-04-11T19:46:48.016Z,6.47
2018-04-11T19:49:15.642Z,6.46
2018-04-11T19:51:43.252Z,6.44
2018-04-11T19:54:10.885Z,6.42
2018-04-11T19:56:38.500Z,6.40
2018-04-11T19:59:06.241Z,6.38
2018-04-11T20:01:33.880Z,6.36
2018-04-11T20:04:01.507Z,6.36
2018-04-11T20:06:29.743Z,6.36
2018-04-11T20:08:57.419Z,6.35
2018-04-11T20:11:25.075Z,6.33
2018-04-11T20:13:52.754Z,6.32
2018-04-11T20:16:20.348Z,6.30
2018-04-11T20:18:47.987Z,6.28
2018-04-11T20:21:15.595Z,6.26
2018-04-11T20:23:43.228Z,6.24
2018-04-11T20:26:10.943Z,6.23
2018-04-11T20:28:38.570Z,6.21
2018-04-11T20:31:06.174Z,6.20
2018-04-11T20:33:33.787Z,6.18
2018-04-11T20:36:01.423Z,6.18
2018-04-11T20:38:29.155Z,6.17
2018-04-11T20:40:56.828Z,6.15
2018-04-11T20:43:24.439Z,6.13
2018-04-11T20:45:52.147Z,6.13
2018-04-11T20:48:19.760Z,6.13
2018-04-11T20:50:47.393Z,6.11
2018-04-11T20:53:15.039Z,6.12
2018-04-11T20:55:42.700Z,6.11
2018-04-11T20:58:10.393Z,6.10
2018-04-11T21:00:38.016Z,6.10
2018-04-11T21:03:05.627Z,6.09
2018-04-11T21:05:33.254Z,6.10
2018-04-11T21:08:00.909Z,6.09
2018-04-11T21:10:28.535Z,6.09
2018-04-11T21:12:56.231Z,6.05
2018-04-11T21:15:23.863Z,6.08
2018-04-11T21:17:51.559Z,6.06
2018-04-11T21:20:19.190Z,6.04
2018-04-11T21:22:46.794Z,6.02
2018-04-11T21:25:14.448Z,6.01
2018-04-11T21:27:42.060Z,6.00
2018-04-11T21:30:09.691Z,6.00
2018-04-11T21:32:37.300Z,5.99
2018-04-11T21:35:04.934Z,5.98
2018-04-11T21:37:32.664Z,5.97
2018-04-11T21:40:00.415Z,5.97
2018-04-11T21:42:28.032Z,5.95
2018-04-11T21:44:55.674Z,5.96
2018-04-11T21:47:23.313Z,5.95
2018-04-11T21:49:50.927Z,5.93
2018-04-11T21:52:18.563Z,5.92
2018-04-11T21:54:46.200Z,5.91
2018-04-11T21:57:13.836Z,5.91
2018-04-11T21:59:41.455Z,5.90
2018-04-11T22:02:09.082Z,5.88
2018-04-11T22:04:36.739Z,5.85
2018-04-11T22:07:04.408Z,5.81
2018-04-11T22:09:32.019Z,5.78
2018-04-11T22:11:59.731Z,5.76
2018-04-11T22:14:27.396Z,5.74
2018-04-11T22:16:55.030Z,5.73
2018-04-11T22:19:22.728Z,5.73
2018-04-11T22:21:50.388Z,5.70
2018-04-11T22:24:18.000Z,5.68
2018-04-11T22:26:45.626Z,5.67
2018-04-11T22:29:13.236Z,5.65
2018-04-11T22:31:40.873Z,5.62
2018-04-11T22:34:08.487Z,5.61
2018-04-11T22:36:36.124Z,5.58
2018-04-11T22:39:03.771Z,5.56
2018-04-11T22:41:31.398Z,5.55
2018-04-11T22:43:59.003Z,5.55
2018-04-11T22:46:26.711Z,5.54
2018-04-11T22:48:54.323Z,5.56
2018-04-11T22:51:22.026Z,5.57
2018-04-11T22:53:49.635Z,5.57
2018-04-11T22:56:17.263Z,5.57
2018-04-11T22:58:44.871Z,5.57
2018-04-11T23:01:12.515Z,5.57
2018-04-11T23:03:40.146Z,5.57
2018-04-11T23:06:07.756Z,5.57
2018-04-11T23:08:35.388Z,5.59
2018-04-11T23:11:03.008Z,5.59
2018-04-11T23:13:30.639Z,5.59
2018-04-11T23:15:58.246Z,5.58
2018-04-11T23:18:25.892Z,5.57
2018-04-11T23:20:53.575Z,5.57
2018-04-11T23:23:21.207Z,5.57
2018-04-11T23:25:48.818Z,5.58
2018-04-11T23:28:16.540Z,5.57
2018-04-11T23:30:44.227Z,5.58
2018-04-11T23:33:11.892Z,5.58
2018-04-11T23:35:39.507Z,5.59
2018-04-11T23:38:07.137Z,5.61
2018-04-11T23:40:34.744Z,5.62
2018-04-11T23:43:02.853Z,5.65
2018-04-11T23:45:30.467Z,5.66
2018-04-11T23:47:58.173Z,5.67
2018-04-11T23:50:25.787Z,5.69
2018-04-11T23:52:53.419Z,5.70
2018-04-11T23:55:21.060Z,5.70
2018-04-11T23:57:48.714Z,5.71
